Time;durP1;ratioP1;P1;durP2;ratioP2;P2;SDS_P1;SDS_P2;PMS_P1;PMS_P2;Temp;Humidity;BMP_temperature;BMP_pressure;BME280_temperature;BME280_humidity;BME280_pressure;Samples;Min_cycle;Max_cycle;Signal;HPM_P1;HPM_P2
2023/12/29 00:00:19;;;;;;;8.88;2.25;;;;;;;10.20;97.12;100740.22;5035419;28;20385;-78
2023/12/29 00:02:44;;;;;;;12.70;2.58;;;;;;;10.19;97.02;100749.91;5028488;28;20049;-79
2023/12/29 00:05:10;;;;;;;14.23;2.80;;;;;;;10.21;96.70;100752.44;5026582;28;20026;-79
2023/12/29 00:07:35;;;;;;;9.25;2.55;;;;;;;10.23;96.38;100755.81;5029390;28;20025;-78
2023/12/29 00:10:01;;;;;;;13.40;2.90;;;;;;;10.26;96.14;100750.31;5051890;28;20032;-78
2023/12/29 00:12:26;;;;;;;9.23;2.50;;;;;;;10.26;96.14;100751.16;5052163;28;20381;-79
2023/12/29 00:14:51;;;;;;;10.13;2.78;;;;;;;10.26;96.00;100745.06;5051173;28;20028;-78
2023/12/29 00:17:17;;;;;;;11.40;2.90;;;;;;;10.26;96.13;100742.44;5040522;28;20184;-78
2023/12/29 00:19:42;;;;;;;9.15;2.60;;;;;;;10.26;96.38;100727.50;5033550;28;20049;-79
2023/12/29 00:22:07;;;;;;;9.65;2.83;;;;;;;10.24;97.22;100744.34;5030012;28;20112;-78
2023/12/29 00:24:33;;;;;;;11.27;2.75;;;;;;;10.23;97.09;100740.03;5030388;28;20055;-78
2023/12/29 00:26:58;;;;;;;9.68;2.33;;;;;;;10.20;97.51;100743.72;5030513;28;20026;-78
2023/12/29 00:29:25;;;;;;;11.60;2.88;;;;;;;10.21;97.19;100726.16;5038487;28;20030;-78
2023/12/29 00:31:50;;;;;;;11.23;2.50;;;;;;;10.18;97.84;100735.06;5040629;28;20031;-78
2023/12/29 00:34:16;;;;;;;12.15;3.22;;;;;;;10.19;97.74;100734.13;5029289;28;20139;-79
2023/12/29 00:36:41;;;;;;;11.55;2.60;;;;;;;10.19;97.47;100743.81;5033660;28;20021;-79
2023/12/29 00:39:06;;;;;;;10.45;2.42;;;;;;;10.19;97.49;100728.03;5043200;28;20044;-78
2023/12/29 00:41:32;;;;;;;9.02;2.60;;;;;;;10.20;97.37;100727.06;5048309;28;20112;-78
2023/12/29 00:44:00;;;;;;;10.27;2.75;;;;;;;10.17;98.60;100729.94;5035232;28;20029;-78
2023/12/29 00:46:25;;;;;;;11.55;2.83;;;;;;;10.14;99.58;100717.03;5049286;28;20114;-78
2023/12/29 00:48:50;;;;;;;9.35;2.42;;;;;;;10.11;100.00;100719.88;5045341;28;20445;-78
2023/12/29 00:51:16;;;;;;;15.07;2.83;;;;;;;10.02;100.00;100711.72;5038223;28;20037;-78
2023/12/29 00:53:41;;;;;;;9.40;2.20;;;;;;;9.99;100.00;100721.59;5033633;28;20532;-79
2023/12/29 00:56:11;;;;;;;12.73;3.08;;;;;;;9.92;100.00;100721.22;5038866;28;20536;-79
2023/12/29 00:58:36;;;;;;;11.95;2.90;;;;;;;9.87;100.00;100712.00;5046390;28;20524;-79
2023/12/29 01:01:01;;;;;;;14.20;2.88;;;;;;;9.81;100.00;100722.97;5037624;28;20020;-79
2023/12/29 01:03:30;;;;;;;11.18;2.95;;;;;;;9.76;100.00;100715.41;5049880;28;20048;-79
2023/12/29 01:05:55;;;;;;;14.13;2.80;;;;;;;9.68;100.00;100712.50;5050373;28;20201;-79
2023/12/29 01:08:20;;;;;;;14.35;2.88;;;;;;;9.60;100.00;100717.44;5049906;28;20623;-80
2023/12/29 01:10:46;;;;;;;13.35;2.95;;;;;;;9.55;100.00;100714.31;5049553;28;20025;-79
2023/12/29 01:13:11;;;;;;;10.27;2.85;;;;;;;9.46;100.00;100712.34;5045571;28;20026;-78
2023/12/29 01:15:37;;;;;;;10.35;2.80;;;;;;;9.38;100.00;100711.13;5042202;28;20033;-78
2023/12/29 01:18:02;;;;;;;15.23;3.30;;;;;;;9.30;100.00;100713.47;5030091;28;20439;-78
2023/12/29 01:20:27;;;;;;;13.30;2.83;;;;;;;9.24;100.00;100713.91;5030591;28;20032;-78
2023/12/29 01:22:53;;;;;;;10.73;2.80;;;;;;;9.17;100.00;100711.78;5031158;28;20017;-78
2023/12/29 01:25:18;;;;;;;15.77;2.97;;;;;;;9.09;100.00;100717.56;5029026;28;20040;-78
2023/12/29 01:27:44;;;;;;;13.63;3.38;;;;;;;9.03;100.00;100715.38;5047518;28;20079;-78
2023/12/29 01:30:09;;;;;;;11.95;2.97;;;;;;;8.95;100.00;100718.53;5044907;28;20029;-78
2023/12/29 01:32:36;;;;;;;10.82;2.80;;;;;;;8.87;100.00;100699.88;5039480;28;20431;-78
2023/12/29 01:35:01;;;;;;;14.43;3.53;;;;;;;8.84;100.00;100694.84;5040440;28;20498;-78
2023/12/29 01:37:29;;;;;;;12.68;3.20;;;;;;;8.79;100.00;100708.25;5038582;28;20086;-78
2023/12/29 01:39:55;;;;;;;12.75;2.90;;;;;;;8.74;100.00;100693.78;5043343;28;20033;-78
2023/12/29 01:42:20;;;;;;;13.93;3.08;;;;;;;8.70;100.00;100693.16;5037539;28;20028;-78
2023/12/29 01:44:51;;;;;;;13.52;3.28;;;;;;;8.67;100.00;100693.34;5041112;28;20138;-78
2023/12/29 01:47:16;;;;;;;15.60;3.20;;;;;;;8.63;100.00;100678.78;5048372;28;20040;-78
2023/12/29 01:49:44;;;;;;;16.52;3.15;;;;;;;8.62;100.00;100682.34;5041867;28;20033;-78
2023/12/29 01:52:10;;;;;;;16.05;3.40;;;;;;;8.61;100.00;100688.53;5036670;28;20032;-78
2023/12/29 01:54:40;;;;;;;14.55;3.17;;;;;;;8.61;100.00;100695.56;5046865;28;20493;-78
2023/12/29 01:57:08;;;;;;;17.48;3.42;;;;;;;8.62;100.00;100694.63;5044723;28;20032;-78
2023/12/29 01:59:35;;;;;;;12.88;3.00;;;;;;;8.62;100.00;100687.59;5028176;28;20477;-78
2023/12/29 02:02:01;;;;;;;12.23;3.15;;;;;;;8.62;100.00;100679.72;5039545;28;20485;-78
2023/12/29 02:04:28;;;;;;;15.82;3.33;;;;;;;8.63;100.00;100689.28;5049898;28;20116;-79
2023/12/29 02:06:54;;;;;;;17.52;3.25;;;;;;;8.65;100.00;100684.75;5044500;28;20938;-79
2023/12/29 02:09:20;;;;;;;13.10;3.60;;;;;;;8.67;100.00;100685.50;5041141;28;20533;-79
2023/12/29 02:11:46;;;;;;;11.80;2.80;;;;;;;8.70;100.00;100693.16;5028075;28;20080;-79
2023/12/29 02:14:12;;;;;;;13.45;3.42;;;;;;;8.73;100.00;100702.59;5037521;28;20029;-79
2023/12/29 02:16:48;;;;;;;16.95;3.42;;;;;;;8.76;100.00;100713.72;5049253;28;20024;-79
2023/12/29 02:19:40;;;;;;;15.57;3.50;;;;;;;8.81;100.00;100699.47;5048395;28;20033;-79
2023/12/29 02:22:07;;;;;;;16.27;2.80;;;;;;;8.81;100.00;100704.72;5047370;28;20028;-78
2023/12/29 02:24:34;;;;;;;11.55;3.10;;;;;;;8.84;100.00;100700.09;5048926;28;20032;-79
2023/12/29 02:27:30;;;;;;;14.63;3.05;;;;;;;8.88;100.00;100706.78;5043646;28;20033;-79
2023/12/29 02:30:38;;;;;;;13.82;3.28;;;;;;;8.94;100.00;100689.78;5039545;28;20029;-78
2023/12/29 02:33:11;;;;;;;10.95;2.63;;;;;;;8.96;100.00;100693.97;5039929;28;20048;-79
2023/12/29 02:35:40;;;;;;;10.93;3.15;;;;;;;8.99;100.00;100687.69;5045915;28;20049;-79
2023/12/29 02:38:07;;;;;;;12.90;2.78;;;;;;;9.03;100.00;100683.88;5041301;28;20501;-79
2023/12/29 02:40:33;;;;;;;15.38;2.88;;;;;;;9.05;100.00;100671.50;5044940;28;20155;-79
2023/12/29 02:43:02;;;;;;;14.75;2.92;;;;;;;9.09;100.00;100688.69;5034815;28;20029;-78
2023/12/29 02:45:27;;;;;;;12.15;2.60;;;;;;;9.12;100.00;100693.72;5030372;28;20028;-78
2023/12/29 02:47:52;;;;;;;13.85;2.97;;;;;;;9.15;100.00;100687.44;5031798;28;20040;-79
2023/12/29 02:50:18;;;;;;;10.98;2.15;;;;;;;9.19;100.00;100686.25;5032817;28;20377;-79
2023/12/29 02:52:43;;;;;;;12.48;2.47;;;;;;;9.18;100.00;100690.69;5036676;28;20029;-79
2023/12/29 02:55:09;;;;;;;13.40;2.67;;;;;;;9.19;100.00;100694.97;5033669;28;20029;-78
2023/12/29 02:57:35;;;;;;;12.23;3.15;;;;;;;9.17;100.00;100699.50;5040872;28;20029;-78
2023/12/29 03:00:00;;;;;;;12.25;2.72;;;;;;;9.17;100.00;100696.03;5047014;28;20047;-79
2023/12/29 03:02:25;;;;;;;11.98;2.97;;;;;;;9.18;100.00;100681.97;5042482;28;20026;-78
2023/12/29 03:04:51;;;;;;;11.63;2.78;;;;;;;9.18;100.00;100692.47;5033493;28;20816;-78
2023/12/29 03:07:16;;;;;;;13.70;2.85;;;;;;;9.22;100.00;100689.53;5028700;28;20029;-78
2023/12/29 03:09:42;;;;;;;8.73;2.50;;;;;;;9.23;100.00;100683.34;5043412;28;20029;-78
2023/12/29 03:12:07;;;;;;;13.10;2.78;;;;;;;9.25;100.00;100684.06;5045239;28;20026;-78
2023/12/29 03:14:32;;;;;;;11.43;2.72;;;;;;;9.26;100.00;100685.75;5028204;28;20151;-78
2023/12/29 03:16:58;;;;;;;14.52;3.22;;;;;;;9.26;100.00;100674.41;5039386;28;20021;-78
2023/12/29 03:19:24;;;;;;;16.42;3.00;;;;;;;9.27;100.00;100673.47;5044492;28;20021;-79
2023/12/29 03:21:50;;;;;;;12.70;3.05;;;;;;;9.27;100.00;100682.16;5030128;28;20045;-78
2023/12/29 03:24:18;;;;;;;10.30;2.78;;;;;;;9.28;100.00;100688.25;5046653;28;20021;-79
2023/12/29 03:26:43;;;;;;;10.73;2.90;;;;;;;9.29;100.00;100698.66;5046835;28;20025;-79
2023/12/29 03:29:08;;;;;;;10.55;3.05;;;;;;;9.31;100.00;100686.25;5034020;28;20072;-79
2023/12/29 03:31:34;;;;;;;12.35;2.85;;;;;;;9.34;100.00;100687.81;5034803;28;20025;-78
2023/12/29 03:33:59;;;;;;;13.02;2.25;;;;;;;9.36;100.00;100697.25;5028792;28;20064;-78
2023/12/29 03:36:24;;;;;;;9.57;2.75;;;;;;;9.37;100.00;100688.44;5029739;28;20418;-79
2023/12/29 03:38:50;;;;;;;13.90;3.08;;;;;;;9.38;100.00;100691.91;5034949;28;20053;-78
2023/12/29 03:41:18;;;;;;;15.48;3.28;;;;;;;9.39;100.00;100690.94;5033000;28;20109;-79
2023/12/29 03:43:44;;;;;;;14.55;2.60;;;;;;;9.42;100.00;100683.69;5030687;28;20027;-79
2023/12/29 03:46:20;;;;;;;10.07;2.60;;;;;;;9.45;100.00;100679.16;5030636;28;20441;-79
2023/12/29 03:48:45;;;;;;;13.40;2.67;;;;;;;9.43;100.00;100690.63;5031028;28;20029;-79
2023/12/29 03:51:11;;;;;;;12.23;2.80;;;;;;;9.45;100.00;100680.00;5029756;28;20071;-79
2023/12/29 03:53:36;;;;;;;13.65;2.70;;;;;;;9.46;100.00;100692.19;5048763;28;20029;-79
2023/12/29 03:56:06;;;;;;;10.70;3.08;;;;;;;9.46;100.00;100686.09;5050880;28;20060;-79
2023/12/29 03:58:31;;;;;;;14.02;3.20;;;;;;;9.50;100.00;100656.03;5048461;28;20105;-79
2023/12/29 04:01:00;;;;;;;11.57;2.38;;;;;;;9.52;100.00;100680.41;5050481;28;20021;-79
2023/12/29 04:03:25;;;;;;;12.10;2.85;;;;;;;9.52;100.00;100680.41;5052494;28;20028;-79
2023/12/29 04:05:51;;;;;;;11.30;2.90;;;;;;;9.52;100.00;100680.41;5052025;28;20017;-79
2023/12/29 04:08:16;;;;;;;11.52;2.88;;;;;;;9.51;100.00;100683.97;5042880;28;20033;-79
2023/12/29 04:10:41;;;;;;;10.13;2.90;;;;;;;9.52;100.00;100686.50;5036572;28;20469;-79
2023/12/29 04:13:06;;;;;;;13.27;2.95;;;;;;;9.50;100.00;100677.03;5042906;28;20091;-79
2023/12/29 04:15:32;;;;;;;12.77;2.95;;;;;;;9.50;100.00;100679.66;5049443;28;20029;-79
2023/12/29 04:17:58;;;;;;;13.93;3.25;;;;;;;9.50;100.00;100683.13;5052657;28;20029;-79
2023/12/29 04:20:24;;;;;;;12.30;3.33;;;;;;;9.50;100.00;100688.38;5048610;28;20025;-79
2023/12/29 04:22:49;;;;;;;14.32;3.05;;;;;;;9.51;100.00;100678.72;5032632;28;20063;-79
2023/12/29 04:25:18;;;;;;;14.50;3.05;;;;;;;9.48;100.00;100681.56;5031874;28;20116;-79
2023/12/29 04:27:43;;;;;;;13.73;3.40;;;;;;;9.48;100.00;100678.94;5039233;28;20561;-79
2023/12/29 04:30:09;;;;;;;10.32;2.97;;;;;;;9.48;100.00;100673.69;5031959;28;20064;-79
2023/12/29 04:32:35;;;;;;;14.30;3.13;;;;;;;9.45;100.00;100668.66;5036155;28;20634;-79
2023/12/29 04:35:00;;;;;;;15.00;3.20;;;;;;;9.45;100.00;100672.13;5041201;28;20574;-79
2023/12/29 04:37:25;;;;;;;13.40;3.08;;;;;;;9.43;100.00;100676.66;5050134;28;20052;-78
2023/12/29 04:39:51;;;;;;;15.15;3.10;;;;;;;9.46;100.00;100675.59;5049460;28;20021;-79
2023/12/29 04:42:17;;;;;;;15.93;3.28;;;;;;;9.43;100.00;100661.72;5050083;28;20472;-79
2023/12/29 04:44:43;;;;;;;13.43;3.42;;;;;;;9.44;100.00;100673.06;5044048;28;20477;-79
2023/12/29 04:47:09;;;;;;;13.18;3.25;;;;;;;9.43;100.00;100672.25;5049297;28;20401;-79
2023/12/29 04:49:34;;;;;;;14.50;3.25;;;;;;;9.43;100.00;100674.03;5048949;28;20021;-79
2023/12/29 04:51:59;;;;;;;14.57;3.42;;;;;;;9.40;100.00;100664.59;5048960;28;20473;-79
2023/12/29 04:54:25;;;;;;;16.65;3.42;;;;;;;9.39;100.00;100660.28;5047347;28;20267;-79
2023/12/29 04:56:50;;;;;;;14.38;3.17;;;;;;;9.40;100.00;100669.84;5050254;28;20051;-79
2023/12/29 04:59:16;;;;;;;11.40;3.42;;;;;;;9.37;100.00;100671.84;5049608;28;20060;-79
2023/12/29 05:01:41;;;;;;;13.05;3.47;;;;;;;9.35;100.00;100661.44;5042017;28;20021;-79
2023/12/29 05:04:07;;;;;;;15.07;3.28;;;;;;;9.35;100.00;100668.50;5048807;28;20024;-79
2023/12/29 05:06:32;;;;;;;15.63;3.35;;;;;;;9.33;100.00;100686.97;5050496;28;20436;-79
2023/12/29 05:09:00;;;;;;;11.43;2.95;;;;;;;9.33;100.00;100686.97;5048135;28;20485;-79
2023/12/29 05:11:26;;;;;;;14.82;3.38;;;;;;;9.30;100.00;100671.44;5033642;28;20029;-79
2023/12/29 05:13:51;;;;;;;16.20;3.55;;;;;;;9.32;100.00;100674.81;5041780;28;20025;-79
2023/12/29 05:16:16;;;;;;;16.98;3.40;;;;;;;9.30;100.00;100671.44;5042631;28;20567;-79
2023/12/29 05:18:42;;;;;;;13.88;3.15;;;;;;;9.29;100.00;100669.78;5050730;28;20100;-79
2023/12/29 05:21:16;;;;;;;12.05;3.40;;;;;;;9.29;100.00;100675.03;5035897;28;20029;-78
2023/12/29 05:23:43;;;;;;;15.13;3.33;;;;;;;9.29;100.00;100675.03;5030132;28;20025;-78
2023/12/29 05:26:08;;;;;;;7.97;2.85;;;;;;;9.26;100.00;100677.88;5031082;28;20444;-78
2023/12/29 05:28:33;;;;;;;13.05;3.00;;;;;;;9.27;100.00;100679.53;5031455;28;20021;-78
2023/12/29 05:31:03;;;;;;;15.48;3.08;;;;;;;9.27;100.00;100671.66;5032564;28;20025;-78
2023/12/29 05:33:28;;;;;;;13.05;3.80;;;;;;;9.26;100.00;100669.16;5036704;28;20034;-78
2023/12/29 05:35:54;;;;;;;15.57;3.10;;;;;;;9.25;100.00;100662.22;5046424;28;20049;-78
2023/12/29 05:38:19;;;;;;;12.60;3.10;;;;;;;9.22;100.00;100658.03;5032716;28;20025;-78
2023/12/29 05:40:45;;;;;;;10.23;2.80;;;;;;;9.20;100.00;100659.91;5050962;28;20040;-78
2023/12/29 05:43:10;;;;;;;10.10;2.75;;;;;;;9.15;100.00;100664.66;5043428;28;20498;-78
2023/12/29 05:45:35;;;;;;;14.15;3.38;;;;;;;9.13;100.00;100663.91;5032684;28;20448;-78
2023/12/29 05:48:01;;;;;;;12.95;2.92;;;;;;;9.12;100.00;100662.25;5044587;28;20120;-78
2023/12/29 05:50:26;;;;;;;12.60;3.28;;;;;;;9.11;100.00;100661.41;5040714;28;20071;-78
2023/12/29 05:52:51;;;;;;;14.35;3.53;;;;;;;9.12;100.00;100654.38;5034214;28;20048;-78
2023/12/29 05:55:18;;;;;;;16.60;3.25;;;;;;;9.11;100.00;100661.41;5030405;28;20060;-79
2023/12/29 05:57:44;;;;;;;11.07;2.97;;;;;;;9.15;100.00;100656.78;5043799;28;20037;-78
2023/12/29 06:00:14;;;;;;;10.98;2.75;;;;;;;9.14;100.00;100655.09;5029417;28;20481;-78
2023/12/29 06:02:41;;;;;;;14.82;3.33;;;;;;;9.15;100.00;100656.78;5038926;28;20027;-78
2023/12/29 06:05:06;;;;;;;11.10;3.05;;;;;;;9.14;100.00;100655.09;5048203;28;20031;-78
2023/12/29 06:07:32;;;;;;;15.65;3.47;;;;;;;9.15;100.00;100656.78;5034695;28;20025;-78
2023/12/29 06:09:58;;;;;;;13.68;3.08;;;;;;;9.15;100.00;100648.06;5042732;28;20482;-78
2023/12/29 06:12:24;;;;;;;12.23;3.28;;;;;;;9.15;100.00;100650.69;5037333;28;20033;-79
2023/12/29 06:14:49;;;;;;;12.30;3.00;;;;;;;9.15;100.00;100666.44;5040970;28;20071;-79
2023/12/29 06:17:15;;;;;;;13.15;3.08;;;;;;;9.14;100.00;100660.34;5042784;28;20061;-79
2023/12/29 06:19:41;;;;;;;9.00;2.63;;;;;;;9.15;100.00;100648.06;5046612;28;20478;-78
2023/12/29 06:22:11;;;;;;;11.43;2.90;;;;;;;9.16;100.00;100644.47;5027585;28;20040;-79
2023/12/29 06:24:39;;;;;;;14.50;3.05;;;;;;;9.18;100.00;100638.19;5028159;28;20051;-79
2023/12/29 06:27:05;;;;;;;10.15;2.70;;;;;;;9.18;100.00;100653.91;5027153;28;20504;-79
2023/12/29 06:29:30;;;;;;;11.18;2.83;;;;;;;9.20;100.00;100654.66;5028908;28;20087;-78
2023/12/29 06:31:56;;;;;;;13.95;3.38;;;;;;;9.19;100.00;100658.22;5029761;28;20400;-79
2023/12/29 06:34:21;;;;;;;13.82;3.05;;;;;;;9.18;100.00;100659.19;5045983;28;20049;-78
2023/12/29 06:36:47;;;;;;;11.40;2.85;;;;;;;9.20;100.00;100661.69;5048978;28;20060;-78
2023/12/29 06:39:12;;;;;;;10.52;2.70;;;;;;;9.21;100.00;100651.09;5049013;28;20028;-78
2023/12/29 06:41:37;;;;;;;15.30;2.83;;;;;;;9.19;100.00;100650.34;5048748;28;20028;-78
2023/12/29 06:44:03;;;;;;;11.70;2.70;;;;;;;9.22;100.00;100660.66;5048038;28;20021;-78
2023/12/29 06:46:28;;;;;;;8.63;2.53;;;;;;;9.22;100.00;100658.03;5043802;28;20076;-78
2023/12/29 06:48:54;;;;;;;10.55;2.42;;;;;;;9.22;100.00;100659.81;5036005;28;20055;-78
2023/12/29 06:51:20;;;;;;;12.02;2.72;;;;;;;9.21;100.00;100653.75;5062119;28;20048;-77
2023/12/29 06:53:47;;;;;;;10.68;2.55;;;;;;;9.19;100.00;100642.47;5036539;28;20148;-78
2023/12/29 06:56:14;;;;;;;10.82;2.67;;;;;;;9.18;100.00;100650.47;5043540;28;20040;-78
2023/12/29 06:58:40;;;;;;;10.75;2.90;;;;;;;9.18;100.00;100645.22;5047530;28;20059;-78
2023/12/29 07:01:05;;;;;;;15.65;3.15;;;;;;;9.15;100.00;100643.66;5045870;28;20052;-80
2023/12/29 07:03:31;;;;;;;7.97;2.72;;;;;;;9.15;100.00;100641.03;5034473;28;20044;-78
2023/12/29 07:05:56;;;;;;;11.02;2.63;;;;;;;9.15;100.00;100630.53;5042701;28;20033;-78
2023/12/29 07:08:22;;;;;;;8.55;2.60;;;;;;;9.14;100.00;100634.09;5038779;28;20466;-78
2023/12/29 07:10:50;;;;;;;12.95;3.20;;;;;;;9.15;100.00;100627.91;5046876;28;20082;-79
2023/12/29 07:13:16;;;;;;;14.98;2.85;;;;;;;9.13;100.00;100639.44;5046009;28;20032;-78
2023/12/29 07:15:41;;;;;;;11.68;2.70;;;;;;;9.12;100.00;100638.63;5045817;28;20060;-78
2023/12/29 07:18:07;;;;;;;10.90;2.80;;;;;;;9.07;100.00;100643.34;5046558;28;20115;-78
2023/12/29 07:20:32;;;;;;;13.38;3.22;;;;;;;9.04;100.00;100643.56;5040782;28;20370;-79
2023/12/29 07:22:58;;;;;;;12.85;3.20;;;;;;;9.02;100.00;100632.34;5033086;28;20363;-79
2023/12/29 07:25:23;;;;;;;11.93;2.65;;;;;;;8.98;100.00;100634.34;5041076;28;20029;-78
2023/12/29 07:27:49;;;;;;;10.93;2.75;;;;;;;9.00;100.00;100621.97;5032719;28;20040;-78
2023/12/29 07:30:15;;;;;;;8.77;2.70;;;;;;;9.02;100.00;100619.22;5037914;28;20025;-78
2023/12/29 07:32:41;;;;;;;10.93;2.47;;;;;;;9.04;100.00;100625.22;5029952;28;20033;-77
2023/12/29 07:35:06;;;;;;;8.38;2.05;;;;;;;9.08;100.00;100618.78;5044158;28;20060;-77
2023/12/29 07:37:32;;;;;;;10.23;2.40;;;;;;;9.09;100.00;100620.47;5044208;28;20036;-78
2023/12/29 07:40:00;;;;;;;8.38;2.28;;;;;;;9.11;100.00;100629.06;5044414;28;20437;-78
2023/12/29 07:42:26;;;;;;;9.40;2.22;;;;;;;9.13;100.00;100619.28;5029281;28;20029;-78
2023/12/29 07:44:51;;;;;;;9.50;2.40;;;;;;;9.17;100.00;100601.53;5027534;28;20490;-77
2023/12/29 07:47:17;;;;;;;7.85;2.63;;;;;;;9.18;100.00;100613.72;5041250;28;20456;-77
2023/12/29 07:49:42;;;;;;;6.25;2.28;;;;;;;9.18;100.00;100619.81;5046616;28;20071;-77
2023/12/29 07:52:08;;;;;;;7.50;2.10;;;;;;;9.20;100.00;100645.94;5039079;28;20168;-77
2023/12/29 07:54:34;;;;;;;9.48;2.30;;;;;;;9.19;100.00;100647.72;5036293;28;20491;-76
2023/12/29 07:56:59;;;;;;;9.25;2.13;;;;;;;9.18;100.00;100651.31;5046182;28;20124;-77
2023/12/29 07:59:25;;;;;;;7.88;2.20;;;;;;;9.18;100.00;100661.81;5041441;28;20025;-77
2023/12/29 08:01:50;;;;;;;8.38;2.03;;;;;;;9.19;100.00;100665.25;5046459;28;20013;-77
2023/12/29 08:04:16;;;;;;;6.90;1.98;;;;;;;9.20;100.00;100659.06;5045397;28;20071;-76
2023/12/29 08:06:41;;;;;;;6.72;2.10;;;;;;;9.20;100.00;100673.03;5047222;28;20017;-76
2023/12/29 08:09:07;;;;;;;6.20;1.70;;;;;;;9.20;100.00;100665.16;5034830;28;20109;-76
2023/12/29 08:11:33;;;;;;;6.28;1.85;;;;;;;9.20;100.00;100656.44;5046481;28;20451;-76
2023/12/29 08:13:58;;;;;;;7.25;1.88;;;;;;;9.20;100.00;100648.56;5047888;28;20021;-76
2023/12/29 08:16:24;;;;;;;7.43;1.75;;;;;;;9.19;100.00;100647.72;5052944;28;20527;-76
2023/12/29 08:18:49;;;;;;;5.25;1.70;;;;;;;9.21;100.00;100650.28;5049949;28;20507;-77
2023/12/29 08:21:19;;;;;;;5.85;1.60;;;;;;;9.21;100.00;100660.78;5051002;28;20086;-75
2023/12/29 08:23:46;;;;;;;6.80;2.15;;;;;;;9.23;100.00;100653.63;5049142;28;20427;-78
2023/12/29 08:26:12;;;;;;;6.05;1.60;;;;;;;9.23;100.00;100649.22;5047955;28;20029;-76
2023/12/29 08:28:37;;;;;;;5.60;1.65;;;;;;;9.24;100.00;100663.19;5048034;28;20104;-77
2023/12/29 08:31:02;;;;;;;5.40;1.65;;;;;;;9.23;100.00;100662.34;5050614;28;20025;-77
2023/12/29 08:33:28;;;;;;;5.03;1.58;;;;;;;9.24;100.00;100665.81;5050151;28;20493;-77
2023/12/29 08:35:53;;;;;;;5.22;1.70;;;;;;;9.24;100.00;100671.88;5050138;28;20493;-77
2023/12/29 08:38:18;;;;;;;5.80;1.70;;;;;;;9.24;100.00;100660.56;5051231;28;20037;-77
2023/12/29 08:40:44;;;;;;;5.63;1.60;;;;;;;9.25;100.00;100672.72;5049838;28;20046;-77
2023/12/29 08:43:09;;;;;;;4.43;1.27;;;;;;;9.25;100.00;100668.31;5049564;28;20078;-77
2023/12/29 08:45:36;;;;;;;6.38;1.88;;;;;;;9.26;100.00;100680.50;5050491;28;20370;-79
2023/12/29 08:48:02;;;;;;;6.13;1.52;;;;;;;9.27;100.00;100676.09;5047602;28;20496;-76
2023/12/29 08:50:30;;;;;;;4.85;1.50;;;;;;;9.26;100.00;100684.91;5046545;28;20017;-77
2023/12/29 08:52:55;;;;;;;6.45;1.60;;;;;;;9.25;100.00;100694.56;5035069;28;20166;-77
2023/12/29 08:55:21;;;;;;;8.00;1.85;;;;;;;9.23;100.00;100691.22;5049210;28;20528;-77
2023/12/29 08:57:46;;;;;;;5.88;1.98;;;;;;;9.24;100.00;100682.38;5050261;28;20103;-76
2023/12/29 09:00:12;;;;;;;4.18;1.40;;;;;;;9.23;100.00;100685.97;5049857;28;20381;-77
2023/12/29 09:02:37;;;;;;;6.82;1.83;;;;;;;9.21;100.00;100693.13;5050207;28;20032;-77
2023/12/29 09:05:03;;;;;;;4.93;1.38;;;;;;;9.19;100.00;100694.97;5050120;28;20473;-77
2023/12/29 09:07:30;;;;;;;4.72;1.20;;;;;;;9.16;100.00;100694.34;5048755;28;20032;-76
2023/12/29 09:09:55;;;;;;;6.72;1.27;;;;;;;9.14;100.00;100686.59;5037014;28;20489;-76
2023/12/29 09:12:20;;;;;;;5.72;1.38;;;;;;;9.10;100.00;100688.59;5048642;28;20066;-76
2023/12/29 09:14:46;;;;;;;4.60;1.30;;;;;;;9.07;100.00;100686.19;5048934;28;20088;-76
2023/12/29 09:17:11;;;;;;;2.97;1.20;;;;;;;9.07;100.00;100691.44;5046623;28;20687;-77
2023/12/29 09:19:36;;;;;;;3.95;1.20;;;;;;;9.06;100.00;100689.75;5045664;28;20385;-77
2023/12/29 09:22:03;;;;;;;4.30;1.10;;;;;;;9.06;100.00;100697.63;5042570;28;20118;-76
2023/12/29 09:24:28;;;;;;;4.35;0.93;;;;;;;9.05;100.00;100692.50;5049959;28;20043;-78
2023/12/29 09:26:54;;;;;;;4.22;1.20;;;;;;;9.06;100.00;100694.16;5050382;28;20413;-79
2023/12/29 09:29:19;;;;;;;2.83;0.95;;;;;;;9.06;100.00;100689.75;5047818;28;20401;-80
2023/12/29 09:31:45;;;;;;;2.90;1.15;;;;;;;9.08;100.00;100692.28;5050625;28;20047;-79
2023/12/29 09:34:10;;;;;;;3.38;1.20;;;;;;;9.08;100.00;100697.53;5050860;28;20056;-79
2023/12/29 09:36:36;;;;;;;4.13;1.02;;;;;;;9.07;100.00;100701.09;5046702;28;20030;-78
2023/12/29 09:39:02;;;;;;;2.90;1.08;;;;;;;9.09;100.00;100699.19;5046235;28;20043;-79
2023/12/29 09:41:31;;;;;;;4.22;1.23;;;;;;;9.12;100.00;100704.22;5038449;28;20413;-79
2023/12/29 09:44:03;;;;;;;3.63;1.20;;;;;;;9.15;100.00;100698.75;5030852;28;20060;-79
2023/12/29 09:46:32;;;;;;;2.58;0.90;;;;;;;9.19;100.00;100688.88;5029565;28;20025;-79
2023/12/29 09:49:04;;;;;;;3.17;1.17;;;;;;;9.23;100.00;100700.88;5043481;28;20025;-80
2023/12/29 09:51:31;;;;;;;3.45;1.02;;;;;;;9.25;100.00;100705.06;5040642;28;20393;-79
2023/12/29 09:53:58;;;;;;;4.00;1.10;;;;;;;9.28;100.00;100699.59;5047238;28;20543;-80
2023/12/29 09:56:24;;;;;;;2.90;1.40;;;;;;;9.33;100.00;100696.66;5033961;28;20021;-79
2023/12/29 09:58:51;;;;;;;2.88;1.10;;;;;;;9.34;100.00;100704.41;5029337;28;20028;-79
2023/12/29 10:01:18;;;;;;;2.83;0.90;;;;;;;9.37;100.00;100701.56;5031332;28;20061;-79
2023/12/29 10:03:44;;;;;;;2.88;0.90;;;;;;;9.42;100.00;100701.22;5032487;28;20061;-79
2023/12/29 10:06:16;;;;;;;2.53;1.00;;;;;;;9.43;100.00;100701.13;5039876;28;20060;-79
2023/12/29 10:08:46;;;;;;;1.92;0.90;;;;;;;9.46;100.00;100692.19;5050412;28;20103;-79
2023/12/29 10:11:13;;;;;;;2.75;0.90;;;;;;;9.49;100.00;100691.13;5047431;28;20029;-79
2023/12/29 10:13:41;;;;;;;3.67;0.80;;;;;;;9.52;100.00;100698.78;5035475;28;20029;-79
2023/12/29 10:16:25;;;;;;;2.58;0.95;;;;;;;9.57;100.00;100697.50;5046021;28;20033;-79
2023/12/29 10:19:12;;;;;;;3.50;1.13;;;;;;;9.60;100.00;100714.81;5030131;28;20115;-79
2023/12/29 10:21:48;;;;;;;2.70;1.00;;;;;;;9.60;100.00;100699.91;5041848;28;20036;-79
2023/12/29 10:24:20;;;;;;;1.73;0.80;;;;;;;9.65;100.00;100710.09;5048715;28;20021;-79
2023/12/29 10:26:47;;;;;;;2.88;1.60;;;;;;;9.66;100.00;100703.91;5053112;28;20374;-79
2023/12/29 10:29:13;;;;;;;2.80;1.15;;;;;;;9.69;100.00;100709.78;5030166;28;20025;-80
2023/12/29 10:31:38;;;;;;;3.20;1.02;;;;;;;9.70;100.00;100708.81;5041848;28;20035;-79
2023/12/29 10:34:30;;;;;;;2.97;1.17;;;;;;;9.73;100.00;100723.50;5047316;28;20025;-79
2023/12/29 10:36:59;;;;;;;5.43;1.10;;;;;;;9.73;100.00;100720.88;5047073;28;20111;-79
2023/12/29 10:39:25;;;;;;;5.22;1.40;;;;;;;9.77;100.00;100730.22;5041841;28;20029;-80
2023/12/29 10:42:09;;;;;;;3.65;1.10;;;;;;;9.81;100.00;100729.03;5049182;28;20198;-79
2023/12/29 10:44:35;;;;;;;4.15;1.30;;;;;;;9.82;100.00;100735.97;5048510;28;20612;-79
2023/12/29 10:47:11;;;;;;;3.72;1.40;;;;;;;9.86;100.00;100736.59;5046984;28;20016;-79
2023/12/29 10:49:37;;;;;;;4.97;1.15;;;;;;;9.87;100.00;100744.38;5048714;28;20496;-79
2023/12/29 10:52:14;;;;;;;2.85;1.27;;;;;;;9.93;100.00;100749.16;5048625;28;20112;-79
2023/12/29 10:54:39;;;;;;;7.22;1.50;;;;;;;9.94;100.00;100736.88;5048317;28;20017;-79
2023/12/29 10:57:04;;;;;;;5.72;1.73;;;;;;;9.97;100.00;100734.84;5049036;28;20029;-79
2023/12/29 10:59:30;;;;;;;5.10;1.38;;;;;;;9.99;100.00;100740.84;5047955;28;20052;-79
2023/12/29 11:01:56;;;;;;;4.75;1.38;;;;;;;10.02;100.00;100727.50;5047534;28;20029;-78
2023/12/29 11:04:22;;;;;;;6.82;1.90;;;;;;;10.06;100.00;100736.00;5056929;28;20404;-79
2023/12/29 11:06:50;;;;;;;7.78;1.70;;;;;;;10.07;100.00;100728.94;5049260;28;20555;-78
2023/12/29 11:09:36;;;;;;;5.93;1.55;;;;;;;10.11;100.00;100725.13;5040621;28;20044;-79
2023/12/29 11:12:03;;;;;;;10.05;1.90;;;;;;;10.11;100.00;100735.66;5047866;28;20174;-79
2023/12/29 11:14:30;;;;;;;6.50;1.70;;;;;;;10.11;100.00;100736.50;5039721;28;20078;-79
2023/12/29 11:17:00;;;;;;;7.68;2.03;;;;;;;10.12;100.00;100732.91;5033660;28;20033;-78